Time;durP1;ratioP1;P1;durP2;ratioP2;P2;SDS_P1;SDS_P2;PMS_P1;PMS_P2;Temp;Humidity;BMP_temperature;BMP_pressure;BME280_temperature;BME280_humidity;BME280_pressure;Samples;Min_cycle;Max_cycle;Signal;HPM_P1;HPM_P2
2022/01/09 00:01:21;;;;;;;0.63;0.55;;;;;;;;;;4199398;28;20140;-38
2022/01/09 00:03:22;;;;;;;0.17;0.17;;;;;;;;;;4199283;28;20173;-34
2022/01/09 00:05:24;;;;;;;0.20;0.20;;;;;;;;;;4199341;28;20396;-33
2022/01/09 00:07:25;;;;;;;0.20;0.20;;;;;;;;;;4198735;28;20405;-32
2022/01/09 00:09:28;;;;;;;0.35;0.20;;;;;;;;;;4199207;28;20052;-32
2022/01/09 00:11:29;;;;;;;0.57;0.30;;;;;;;;;;4199506;28;20048;-35
2022/01/09 00:13:30;;;;;;;0.28;0.28;;;;;;;;;;4199389;28;20491;-33
2022/01/09 00:15:31;;;;;;;0.60;0.25;;;;;;;;;;4199441;28;20518;-32
2022/01/09 00:17:32;;;;;;;0.20;0.20;;;;;;;;;;4199063;28;20041;-32
2022/01/09 00:19:33;;;;;;;0.20;0.10;;;;;;;;;;4199065;28;20397;-33
2022/01/09 00:21:34;;;;;;;0.28;0.20;;;;;;;;;;4199104;28;20099;-33
2022/01/09 00:23:35;;;;;;;0.22;0.20;;;;;;;;;;4198433;28;20106;-34
2022/01/09 00:25:36;;;;;;;0.38;0.20;;;;;;;;;;4197958;28;20056;-32
2022/01/09 00:27:37;;;;;;;0.40;0.20;;;;;;;;;;4198840;28;20089;-36
2022/01/09 00:29:38;;;;;;;0.20;0.20;;;;;;;;;;4199180;28;20053;-32
2022/01/09 00:31:39;;;;;;;0.43;0.30;;;;;;;;;;4199115;28;20182;-38
2022/01/09 00:33:40;;;;;;;0.20;0.20;;;;;;;;;;4198874;28;20044;-38
2022/01/09 00:35:41;;;;;;;0.30;0.20;;;;;;;;;;4199179;28;20053;-32
2022/01/09 00:37:42;;;;;;;0.15;0.15;;;;;;;;;;4198342;28;20049;-34
2022/01/09 00:39:43;;;;;;;0.30;0.20;;;;;;;;;;4198770;28;20064;-32
2022/01/09 00:41:44;;;;;;;0.20;0.20;;;;;;;;;;4198638;28;20102;-33
2022/01/09 00:43:45;;;;;;;0.25;0.17;;;;;;;;;;4199074;28;20189;-37
2022/01/09 00:45:46;;;;;;;0.43;0.10;;;;;;;;;;4197714;28;20106;-32
2022/01/09 00:47:47;;;;;;;0.30;0.28;;;;;;;;;;4198543;28;20431;-32
2022/01/09 00:49:48;;;;;;;0.57;0.20;;;;;;;;;;4198864;28;20052;-33
2022/01/09 00:51:49;;;;;;;0.20;0.20;;;;;;;;;;4196857;28;20056;-34
2022/01/09 00:53:50;;;;;;;0.20;0.20;;;;;;;;;;4198587;28;20097;-32
2022/01/09 00:55:50;;;;;;;0.30;0.30;;;;;;;;;;4197276;28;20099;-34
2022/01/09 00:57:51;;;;;;;0.30;0.25;;;;;;;;;;4198640;28;20048;-32
2022/01/09 00:59:52;;;;;;;0.17;0.17;;;;;;;;;;4198552;28;20105;-32
2022/01/09 01:01:53;;;;;;;0.30;0.20;;;;;;;;;;4198528;28;20067;-34
2022/01/09 01:03:54;;;;;;;0.35;0.30;;;;;;;;;;4198738;28;20052;-32
2022/01/09 01:05:55;;;;;;;0.25;0.25;;;;;;;;;;4198452;28;20549;-34
2022/01/09 01:07:56;;;;;;;0.20;0.20;;;;;;;;;;4197829;28;20083;-33
2022/01/09 01:09:57;;;;;;;0.28;0.20;;;;;;;;;;4198243;28;20377;-34
2022/01/09 01:11:59;;;;;;;1.30;0.30;;;;;;;;;;4197121;28;20056;-36
2022/01/09 01:14:00;;;;;;;0.38;0.20;;;;;;;;;;4198297;28;20052;-33
2022/01/09 01:16:01;;;;;;;0.40;0.20;;;;;;;;;;4198416;28;20094;-32
2022/01/09 01:18:02;;;;;;;0.20;0.20;;;;;;;;;;4197944;28;20045;-35
2022/01/09 01:20:04;;;;;;;0.20;0.20;;;;;;;;;;4190784;28;20125;-36
2022/01/09 01:22:05;;;;;;;0.20;0.20;;;;;;;;;;4197370;28;20040;-35
2022/01/09 01:24:06;;;;;;;0.20;0.20;;;;;;;;;;4197965;28;20468;-34
2022/01/09 01:26:07;;;;;;;0.20;0.20;;;;;;;;;;4182579;28;20053;-36
2022/01/09 01:28:08;;;;;;;0.38;0.20;;;;;;;;;;4180859;28;20099;-36
2022/01/09 01:30:10;;;;;;;0.13;0.13;;;;;;;;;;4181424;28;20183;-39
2022/01/09 01:32:11;;;;;;;0.32;0.20;;;;;;;;;;4181545;28;20055;-37
2022/01/09 01:34:12;;;;;;;0.20;0.20;;;;;;;;;;4180106;28;20049;-32
2022/01/09 01:36:13;;;;;;;0.20;0.20;;;;;;;;;;4181379;28;20056;-34
2022/01/09 01:38:14;;;;;;;0.32;0.20;;;;;;;;;;4179330;28;20140;-32
2022/01/09 01:40:17;;;;;;;0.20;0.20;;;;;;;;;;4181227;28;20098;-33
2022/01/09 01:42:18;;;;;;;0.30;0.30;;;;;;;;;;4181137;28;20044;-34
2022/01/09 01:44:19;;;;;;;0.35;0.20;;;;;;;;;;4181483;28;20057;-35
2022/01/09 01:46:20;;;;;;;0.30;0.20;;;;;;;;;;4181213;28;20102;-38
2022/01/09 01:48:21;;;;;;;0.30;0.30;;;;;;;;;;4180987;28;20081;-33
2022/01/09 01:50:22;;;;;;;0.20;0.20;;;;;;;;;;4181329;28;20049;-34
2022/01/09 01:52:32;;;;;;;0.10;0.10;;;;;;;;;;4180852;28;20130;-33
2022/01/09 01:54:33;;;;;;;0.90;0.20;;;;;;;;;;4181364;28;20068;-34
2022/01/09 01:56:34;;;;;;;0.20;0.15;;;;;;;;;;4181012;28;20106;-32
2022/01/09 01:58:35;;;;;;;0.20;0.20;;;;;;;;;;4194373;28;20048;-33
2022/01/09 02:00:37;;;;;;;0.20;0.20;;;;;;;;;;4197421;28;20506;-33
2022/01/09 02:02:38;;;;;;;0.40;0.30;;;;;;;;;;4194810;28;20113;-32
2022/01/09 02:04:40;;;;;;;0.13;0.13;;;;;;;;;;4180903;28;20056;-35
2022/01/09 02:06:41;;;;;;;0.43;0.30;;;;;;;;;;4180616;28;20056;-36
2022/01/09 02:08:43;;;;;;;0.10;0.10;;;;;;;;;;4180906;28;20453;-34
2022/01/09 02:10:48;;;;;;;0.40;0.22;;;;;;;;;;4180807;28;20048;-34
2022/01/09 02:12:52;;;;;;;0.35;0.20;;;;;;;;;;4179568;28;20357;-38
2022/01/09 02:14:52;;;;;;;0.47;0.20;;;;;;;;;;4180721;28;20481;-34
2022/01/09 02:16:53;;;;;;;0.35;0.22;;;;;;;;;;4180791;28;20099;-32
2022/01/09 02:18:57;;;;;;;0.20;0.20;;;;;;;;;;4179403;28;20048;-36
2022/01/09 02:20:59;;;;;;;0.20;0.20;;;;;;;;;;4180717;28;20499;-36
2022/01/09 02:23:00;;;;;;;0.20;0.10;;;;;;;;;;4179624;28;20057;-32
2022/01/09 02:25:01;;;;;;;0.20;0.20;;;;;;;;;;4180463;28;20095;-33
2022/01/09 02:27:04;;;;;;;0.38;0.20;;;;;;;;;;4180552;28;20091;-33
2022/01/09 02:29:05;;;;;;;0.20;0.20;;;;;;;;;;4180364;28;20090;-33
2022/01/09 02:31:06;;;;;;;0.10;0.10;;;;;;;;;;4179545;28;20044;-32
2022/01/09 02:33:08;;;;;;;0.20;0.20;;;;;;;;;;4180421;28;20057;-32
2022/01/09 02:35:09;;;;;;;0.20;0.20;;;;;;;;;;4180649;28;20053;-37
2022/01/09 02:37:10;;;;;;;0.20;0.20;;;;;;;;;;4180196;28;20056;-32
2022/01/09 02:39:11;;;;;;;0.20;0.20;;;;;;;;;;4178618;28;20053;-36
2022/01/09 02:41:12;;;;;;;0.32;0.28;;;;;;;;;;4180465;28;20099;-32
2022/01/09 02:43:13;;;;;;;0.50;0.30;;;;;;;;;;4180244;28;20099;-34
2022/01/09 02:45:16;;;;;;;0.40;0.20;;;;;;;;;;4180322;28;20140;-35
2022/01/09 02:47:17;;;;;;;0.30;0.30;;;;;;;;;;4180245;28;20053;-34
2022/01/09 02:49:19;;;;;;;0.20;0.20;;;;;;;;;;4180385;28;20083;-37
2022/01/09 02:51:20;;;;;;;0.20;0.20;;;;;;;;;;4180404;28;20077;-32
2022/01/09 02:53:21;;;;;;;0.68;0.38;;;;;;;;;;4178617;28;20142;-35
2022/01/09 02:55:24;;;;;;;0.25;0.25;;;;;;;;;;4180702;28;20094;-34
2022/01/09 02:57:25;;;;;;;0.22;0.22;;;;;;;;;;4196658;28;20373;-33
2022/01/09 02:59:26;;;;;;;0.15;0.15;;;;;;;;;;4196158;28;20094;-35
2022/01/09 03:01:26;;;;;;;0.45;0.30;;;;;;;;;;4196838;28;20048;-32
2022/01/09 03:03:27;;;;;;;0.22;0.20;;;;;;;;;;4196817;28;20472;-33
2022/01/09 03:05:30;;;;;;;0.20;0.20;;;;;;;;;;4195237;28;20186;-36
2022/01/09 03:07:31;;;;;;;0.30;0.30;;;;;;;;;;4196499;28;20106;-36
2022/01/09 03:09:32;;;;;;;0.20;0.20;;;;;;;;;;4196786;28;20048;-33
2022/01/09 03:11:33;;;;;;;0.20;0.20;;;;;;;;;;4184644;28;20053;-34
2022/01/09 03:13:34;;;;;;;0.10;0.10;;;;;;;;;;4182058;28;20045;-32
2022/01/09 03:15:36;;;;;;;0.20;0.20;;;;;;;;;;4196914;28;20044;-35
2022/01/09 03:17:37;;;;;;;0.52;0.30;;;;;;;;;;4196846;28;20070;-34
2022/01/09 03:19:38;;;;;;;0.40;0.20;;;;;;;;;;4196898;28;20052;-33
2022/01/09 03:21:39;;;;;;;0.45;0.35;;;;;;;;;;4196849;28;20105;-39
2022/01/09 03:23:39;;;;;;;0.45;0.30;;;;;;;;;;4196132;28;20514;-34
2022/01/09 03:25:40;;;;;;;0.40;0.20;;;;;;;;;;4196949;28;20432;-36
2022/01/09 03:27:42;;;;;;;0.25;0.20;;;;;;;;;;4196477;28;20056;-34
2022/01/09 03:29:43;;;;;;;0.20;0.10;;;;;;;;;;4196653;28;20114;-36
2022/01/09 03:31:44;;;;;;;0.20;0.20;;;;;;;;;;4196477;28;20408;-35
2022/01/09 03:33:45;;;;;;;0.22;0.22;;;;;;;;;;4196647;28;20091;-34
2022/01/09 03:35:47;;;;;;;0.35;0.22;;;;;;;;;;4196471;28;20052;-34
2022/01/09 03:37:48;;;;;;;0.30;0.20;;;;;;;;;;4195976;28;20488;-34
2022/01/09 03:39:49;;;;;;;0.20;0.20;;;;;;;;;;4196672;28;20057;-34
2022/01/09 03:41:50;;;;;;;0.43;0.20;;;;;;;;;;4195360;28;20502;-35
2022/01/09 03:43:51;;;;;;;0.40;0.30;;;;;;;;;;4196466;28;20053;-34
2022/01/09 03:45:52;;;;;;;0.28;0.28;;;;;;;;;;4196470;28;20056;-35
2022/01/09 03:47:53;;;;;;;0.20;0.20;;;;;;;;;;4196242;28;20048;-32
2022/01/09 03:49:54;;;;;;;0.40;0.30;;;;;;;;;;4195298;28;20102;-32
2022/01/09 03:51:56;;;;;;;0.30;0.30;;;;;;;;;;4198771;28;20052;-34
2022/01/09 03:53:57;;;;;;;0.20;0.20;;;;;;;;;;4199597;28;20052;-36
2022/01/09 03:55:58;;;;;;;0.65;0.30;;;;;;;;;;4199304;28;20091;-36
2022/01/09 03:57:59;;;;;;;0.25;0.20;;;;;;;;;;4199453;28;20121;-35
2022/01/09 04:00:00;;;;;;;0.30;0.22;;;;;;;;;;4199534;28;20059;-35
2022/01/09 04:02:02;;;;;;;0.55;0.22;;;;;;;;;;4181446;28;20370;-32
2022/01/09 04:04:03;;;;;;;0.20;0.20;;;;;;;;;;4199336;28;20079;-32
2022/01/09 04:06:04;;;;;;;0.45;0.38;;;;;;;;;;4199339;28;20496;-33
2022/01/09 04:08:05;;;;;;;0.10;0.10;;;;;;;;;;4198780;28;20056;-33
2022/01/09 04:10:07;;;;;;;0.30;0.28;;;;;;;;;;4199121;28;20103;-33
2022/01/09 04:12:15;;;;;;;0.25;0.25;;;;;;;;;;4199045;28;20048;-36
2022/01/09 04:14:16;;;;;;;0.30;0.20;;;;;;;;;;4197943;28;20110;-33
2022/01/09 04:16:17;;;;;;;0.22;0.20;;;;;;;;;;4191267;28;20480;-34
2022/01/09 04:18:19;;;;;;;0.35;0.30;;;;;;;;;;4182410;28;20049;-33
2022/01/09 04:20:30;;;;;;;0.40;0.30;;;;;;;;;;4182621;28;20045;-37
2022/01/09 04:22:31;;;;;;;0.22;0.20;;;;;;;;;;4182061;28;20049;-35
2022/01/09 04:24:32;;;;;;;0.28;0.20;;;;;;;;;;4182790;28;20098;-35
2022/01/09 04:26:33;;;;;;;0.30;0.30;;;;;;;;;;4182543;28;20056;-34
2022/01/09 04:28:34;;;;;;;0.30;0.30;;;;;;;;;;4182193;28;20044;-33
2022/01/09 04:30:35;;;;;;;0.73;0.20;;;;;;;;;;4182443;28;20133;-34
2022/01/09 04:32:36;;;;;;;0.20;0.20;;;;;;;;;;4182298;28;20111;-35
2022/01/09 04:34:37;;;;;;;0.20;0.20;;;;;;;;;;4182283;28;20053;-33
2022/01/09 04:36:38;;;;;;;0.20;0.20;;;;;;;;;;4182302;28;20330;-39
2022/01/09 04:38:39;;;;;;;0.20;0.20;;;;;;;;;;4181704;28;20060;-36
2022/01/09 04:40:40;;;;;;;0.30;0.30;;;;;;;;;;4182287;28;20060;-35
2022/01/09 04:42:47;;;;;;;0.10;0.10;;;;;;;;;;4180910;28;20194;-33
2022/01/09 04:44:48;;;;;;;0.20;0.20;;;;;;;;;;4182235;28;20052;-38
2022/01/09 04:46:58;;;;;;;0.10;0.10;;;;;;;;;;4182008;28;20159;-34
2022/01/09 04:48:59;;;;;;;0.47;0.35;;;;;;;;;;4182120;28;20049;-35
2022/01/09 04:51:00;;;;;;;0.30;0.22;;;;;;;;;;4182168;28;20107;-33
2022/01/09 04:53:05;;;;;;;0.13;0.13;;;;;;;;;;4181632;28;20052;-32
2022/01/09 04:55:06;;;;;;;0.35;0.20;;;;;;;;;;4180770;28;20114;-35
2022/01/09 04:57:07;;;;;;;0.10;0.10;;;;;;;;;;4182140;28;20040;-33
2022/01/09 04:59:08;;;;;;;0.20;0.20;;;;;;;;;;4182287;28;20103;-36
2022/01/09 05:01:09;;;;;;;0.52;0.20;;;;;;;;;;4182008;28;20064;-34
2022/01/09 05:03:12;;;;;;;0.20;0.20;;;;;;;;;;4181240;28;20107;-37
2022/01/09 05:05:13;;;;;;;0.30;0.20;;;;;;;;;;4182180;28;20053;-37
2022/01/09 05:07:14;;;;;;;0.30;0.22;;;;;;;;;;4181559;28;20052;-33
2022/01/09 05:09:15;;;;;;;0.20;0.20;;;;;;;;;;4181840;28;20091;-33
2022/01/09 05:11:16;;;;;;;0.57;0.30;;;;;;;;;;4181681;28;20332;-36
2022/01/09 05:13:17;;;;;;;0.15;0.10;;;;;;;;;;4181652;28;20102;-34
2022/01/09 05:15:19;;;;;;;0.20;0.20;;;;;;;;;;4181743;28;20137;-33
2022/01/09 05:17:20;;;;;;;0.40;0.32;;;;;;;;;;4196718;28;20090;-32
2022/01/09 05:19:28;;;;;;;0.47;0.20;;;;;;;;;;4181592;28;20447;-38
2022/01/09 05:21:29;;;;;;;0.68;0.50;;;;;;;;;;4181713;28;20056;-36
2022/01/09 05:23:30;;;;;;;0.30;0.10;;;;;;;;;;4180938;28;20074;-34
2022/01/09 05:25:31;;;;;;;0.20;0.20;;;;;;;;;;4181588;28;20099;-34
2022/01/09 05:27:32;;;;;;;0.30;0.30;;;;;;;;;;4181437;28;20095;-32
2022/01/09 05:29:33;;;;;;;0.40;0.30;;;;;;;;;;4181418;28;20367;-34
2022/01/09 05:31:34;;;;;;;0.20;0.13;;;;;;;;;;4181526;28;20103;-37
2022/01/09 05:33:35;;;;;;;0.30;0.30;;;;;;;;;;4181334;28;20090;-35
2022/01/09 05:35:36;;;;;;;0.20;0.20;;;;;;;;;;4181671;28;20052;-36
2022/01/09 05:37:37;;;;;;;0.32;0.20;;;;;;;;;;4180829;28;20041;-33
2022/01/09 05:39:38;;;;;;;0.25;0.20;;;;;;;;;;4181646;28;20431;-36
2022/01/09 05:41:40;;;;;;;0.20;0.20;;;;;;;;;;4181153;28;20149;-39
2022/01/09 05:43:41;;;;;;;0.38;0.30;;;;;;;;;;4181296;28;20489;-34
2022/01/09 05:45:42;;;;;;;0.20;0.20;;;;;;;;;;4181515;28;20106;-35
2022/01/09 05:47:43;;;;;;;0.10;0.10;;;;;;;;;;4181124;28;20049;-34
2022/01/09 05:49:44;;;;;;;0.10;0.10;;;;;;;;;;4181286;28;20079;-35
2022/01/09 05:51:45;;;;;;;0.20;0.20;;;;;;;;;;4180713;28;20045;-34
2022/01/09 05:53:46;;;;;;;0.13;0.13;;;;;;;;;;4181058;28;20103;-33
2022/01/09 05:55:47;;;;;;;0.10;0.10;;;;;;;;;;4181060;28;20099;-33
2022/01/09 05:57:48;;;;;;;0.30;0.30;;;;;;;;;;4181099;28;20091;-37
2022/01/09 05:59:49;;;;;;;0.20;0.20;;;;;;;;;;4181009;28;20057;-36
2022/01/09 06:01:50;;;;;;;0.20;0.20;;;;;;;;;;4180927;28;20493;-33
2022/01/09 06:03:51;;;;;;;0.32;0.22;;;;;;;;;;4180971;28;20450;-34
2022/01/09 06:05:52;;;;;;;0.28;0.28;;;;;;;;;;4180720;28;20098;-32
2022/01/09 06:07:53;;;;;;;0.40;0.30;;;;;;;;;;4180515;28;20064;-33
2022/01/09 06:09:54;;;;;;;0.52;0.20;;;;;;;;;;4180983;28;20111;-34
2022/01/09 06:11:55;;;;;;;0.20;0.20;;;;;;;;;;4180957;28;20484;-36
2022/01/09 06:13:56;;;;;;;0.20;0.20;;;;;;;;;;4180661;28;20048;-33
2022/01/09 06:15:57;;;;;;;0.10;0.10;;;;;;;;;;4180789;28;20095;-32
2022/01/09 06:17:58;;;;;;;0.20;0.20;;;;;;;;;;4180893;28;20408;-34
2022/01/09 06:19:59;;;;;;;0.50;0.22;;;;;;;;;;4180726;28;20146;-34
2022/01/09 06:21:59;;;;;;;0.30;0.20;;;;;;;;;;4180401;28;20099;-34
2022/01/09 06:24:00;;;;;;;0.10;0.10;;;;;;;;;;4180637;28;20294;-32
2022/01/09 06:26:01;;;;;;;0.38;0.28;;;;;;;;;;4180967;28;20131;-34
2022/01/09 06:28:02;;;;;;;0.20;0.20;;;;;;;;;;4180644;28;20481;-32
2022/01/09 06:30:04;;;;;;;0.20;0.20;;;;;;;;;;4180867;28;20053;-33
2022/01/09 06:32:06;;;;;;;0.22;0.20;;;;;;;;;;4179188;28;20052;-32
2022/01/09 06:34:07;;;;;;;0.25;0.22;;;;;;;;;;4180604;28;20045;-35
2022/01/09 06:36:08;;;;;;;0.20;0.15;;;;;;;;;;4180458;28;20095;-33
2022/01/09 06:38:09;;;;;;;0.40;0.20;;;;;;;;;;4179974;28;20125;-36
2022/01/09 06:40:10;;;;;;;0.10;0.10;;;;;;;;;;4180423;28;20053;-34
2022/01/09 06:42:11;;;;;;;0.32;0.20;;;;;;;;;;4180336;28;20213;-35
2022/01/09 06:44:13;;;;;;;0.10;0.10;;;;;;;;;;4180681;28;20396;-34
2022/01/09 06:46:14;;;;;;;0.20;0.20;;;;;;;;;;4180419;28;20079;-36
2022/01/09 06:48:15;;;;;;;0.28;0.28;;;;;;;;;;4180223;28;20099;-35
2022/01/09 06:50:16;;;;;;;0.25;0.17;;;;;;;;;;4180424;28;20053;-33
2022/01/09 06:52:17;;;;;;;0.30;0.28;;;;;;;;;;4179848;28;20473;-32
2022/01/09 06:54:18;;;;;;;0.20;0.20;;;;;;;;;;4179052;28;20130;-36
2022/01/09 06:56:19;;;;;;;0.50;0.20;;;;;;;;;;4180593;28;20076;-34
2022/01/09 06:58:21;;;;;;;0.45;0.40;;;;;;;;;;4180423;28;20116;-32
2022/01/09 07:00:22;;;;;;;0.20;0.20;;;;;;;;;;4180260;28;20488;-35
2022/01/09 07:02:23;;;;;;;0.10;0.10;;;;;;;;;;4179085;28;20103;-32
2022/01/09 07:04:24;;;;;;;0.10;0.10;;;;;;;;;;4180168;28;20102;-33
2022/01/09 07:06:25;;;;;;;0.20;0.20;;;;;;;;;;4180336;28;20088;-36
2022/01/09 07:08:27;;;;;;;0.40;0.28;;;;;;;;;;4179660;28;20099;-36
2022/01/09 07:10:28;;;;;;;0.43;0.20;;;;;;;;;;4180178;28;20049;-33
2022/01/09 07:12:29;;;;;;;0.40;0.20;;;;;;;;;;4180287;28;20049;-32
2022/01/09 07:14:30;;;;;;;0.32;0.30;;;;;;;;;;4180217;28;20049;-33
2022/01/09 07:16:32;;;;;;;0.30;0.20;;;;;;;;;;4180177;28;20128;-34
2022/01/09 07:18:33;;;;;;;0.45;0.30;;;;;;;;;;4180169;28;20049;-36
2022/01/09 07:20:34;;;;;;;0.25;0.10;;;;;;;;;;4180185;28;20220;-35
2022/01/09 07:22:35;;;;;;;0.20;0.20;;;;;;;;;;4179639;28;20052;-32
2022/01/09 07:24:36;;;;;;;0.25;0.20;;;;;;;;;;4180450;28;20095;-34
2022/01/09 07:26:37;;;;;;;0.10;0.10;;;;;;;;;;4182652;28;20121;-33
2022/01/09 07:28:38;;;;;;;0.30;0.20;;;;;;;;;;4183498;28;20434;-33
2022/01/09 07:30:39;;;;;;;0.20;0.10;;;;;;;;;;4183332;28;20450;-35
2022/01/09 07:32:40;;;;;;;0.20;0.10;;;;;;;;;;4183096;28;20543;-33
2022/01/09 07:34:41;;;;;;;0.20;0.20;;;;;;;;;;4183340;28;20041;-33
2022/01/09 07:36:42;;;;;;;0.15;0.15;;;;;;;;;;4183166;28;20090;-36
2022/01/09 07:38:43;;;;;;;0.30;0.17;;;;;;;;;;4183422;28;20091;-35
2022/01/09 07:40:44;;;;;;;0.20;0.20;;;;;;;;;;4181940;28;20057;-35
2022/01/09 07:42:46;;;;;;;0.30;0.20;;;;;;;;;;4183359;28;20052;-33
2022/01/09 07:44:47;;;;;;;0.22;0.20;;;;;;;;;;4183451;28;20071;-33
2022/01/09 07:46:49;;;;;;;0.52;0.32;;;;;;;;;;4183161;28;20319;-34
2022/01/09 07:48:49;;;;;;;0.10;0.10;;;;;;;;;;4182865;28;20179;-36
2022/01/09 07:50:50;;;;;;;0.20;0.15;;;;;;;;;;4183179;28;20082;-33
2022/01/09 07:52:51;;;;;;;0.35;0.20;;;;;;;;;;4181302;28;20099;-33
2022/01/09 07:54:52;;;;;;;0.10;0.10;;;;;;;;;;4183232;28;20487;-38
2022/01/09 07:56:53;;;;;;;0.20;0.20;;;;;;;;;;4183036;28;20499;-33
2022/01/09 07:58:54;;;;;;;0.30;0.20;;;;;;;;;;4183060;28;20478;-32
2022/01/09 08:00:55;;;;;;;0.13;0.13;;;;;;;;;;4183103;28;20072;-34
2022/01/09 08:02:55;;;;;;;0.35;0.28;;;;;;;;;;4182613;28;20163;-34
2022/01/09 08:04:56;;;;;;;0.30;0.30;;;;;;;;;;4183151;28;20100;-32
2022/01/09 08:06:57;;;;;;;0.20;0.20;;;;;;;;;;4182376;28;20048;-35
2022/01/09 08:08:58;;;;;;;0.22;0.22;;;;;;;;;;4182685;28;20531;-34
2022/01/09 08:10:59;;;;;;;0.20;0.20;;;;;;;;;;4182954;28;20095;-32
2022/01/09 08:13:00;;;;;;;0.30;0.20;;;;;;;;;;4182912;28;20056;-33
2022/01/09 08:15:02;;;;;;;0.25;0.20;;;;;;;;;;4182992;28;20048;-35
2022/01/09 08:17:03;;;;;;;0.28;0.28;;;;;;;;;;4182469;28;20049;-33
2022/01/09 08:19:04;;;;;;;0.30;0.20;;;;;;;;;;4181324;28;20061;-33
2022/01/09 08:21:05;;;;;;;0.13;0.13;;;;;;;;;;4182594;28;20452;-35
2022/01/09 08:23:06;;;;;;;0.40;0.20;;;;;;;;;;4182082;28;20053;-33
2022/01/09 08:25:10;;;;;;;0.43;0.20;;;;;;;;;;4181646;28;20549;-36
2022/01/09 08:27:11;;;;;;;0.13;0.13;;;;;;;;;;4182276;28;20048;-34
2022/01/09 08:29:12;;;;;;;0.30;0.30;;;;;;;;;;4182405;28;20136;-35
2022/01/09 08:31:17;;;;;;;0.20;0.20;;;;;;;;;;4182318;28;20052;-33
2022/01/09 08:33:23;;;;;;;0.10;0.10;;;;;;;;;;4182621;28;20110;-33
2022/01/09 08:35:24;;;;;;;0.30;0.20;;;;;;;;;;4182498;28;20048;-34
2022/01/09 08:37:25;;;;;;;0.20;0.20;;;;;;;;;;4179355;28;20092;-32
2022/01/09 08:39:26;;;;;;;0.30;0.30;;;;;;;;;;4182118;28;20048;-32
2022/01/09 08:41:28;;;;;;;0.20;0.20;;;;;;;;;;4182331;28;20056;-32
2022/01/09 08:43:31;;;;;;;0.22;0.20;;;;;;;;;;4182171;28;20053;-36
2022/01/09 08:45:32;;;;;;;0.50;0.17;;;;;;;;;;4182333;28;20049;-33
2022/01/09 08:47:37;;;;;;;0.20;0.20;;;;;;;;;;4182323;28;20101;-32
2022/01/09 08:49:38;;;;;;;0.20;0.20;;;;;;;;;;4182235;28;20424;-32
2022/01/09 08:51:39;;;;;;;0.17;0.17;;;;;;;;;;4182086;28;20053;-39
2022/01/09 08:53:41;;;;;;;0.20;0.10;;;;;;;;;;4181597;28;20092;-32
2022/01/09 08:55:42;;;;;;;0.30;0.25;;;;;;;;;;4182255;28;20048;-33
2022/01/09 08:57:43;;;;;;;0.10;0.10;;;;;;;;;;4182115;28;20113;-34
2022/01/09 08:59:44;;;;;;;0.10;0.10;;;;;;;;;;4182144;28;20580;-32
2022/01/09 09:01:45;;;;;;;0.35;0.20;;;;;;;;;;4180791;28;20516;-32
2022/01/09 09:03:46;;;;;;;0.40;0.20;;;;;;;;;;4181993;28;20060;-34
2022/01/09 09:05:47;;;;;;;0.50;0.28;;;;;;;;;;4181851;28;20572;-33
2022/01/09 09:07:48;;;;;;;0.10;0.10;;;;;;;;;;4181360;28;20516;-36
2022/01/09 09:09:49;;;;;;;0.13;0.10;;;;;;;;;;4181724;28;20096;-33
2022/01/09 09:11:50;;;;;;;0.20;0.10;;;;;;;;;;4181671;28;20450;-35
2022/01/09 09:13:51;;;;;;;0.10;0.10;;;;;;;;;;4182057;28;20044;-32
2022/01/09 09:15:52;;;;;;;0.30;0.20;;;;;;;;;;4181714;28;20049;-34
2022/01/09 09:17:54;;;;;;;0.20;0.20;;;;;;;;;;4180568;28;20048;-33
2022/01/09 09:19:55;;;;;;;0.28;0.20;;;;;;;;;;4181727;28;20111;-34
2022/01/09 09:21:56;;;;;;;0.30;0.15;;;;;;;;;;4181034;28;20045;-33
2022/01/09 09:23:57;;;;;;;0.10;0.10;;;;;;;;;;4180171;28;20141;-33
2022/01/09 09:25:58;;;;;;;0.30;0.20;;;;;;;;;;4181685;28;20087;-34
2022/01/09 09:27:58;;;;;;;0.10;0.10;;;;;;;;;;4181672;28;20492;-34
2022/01/09 09:30:02;;;;;;;0.10;0.10;;;;;;;;;;4181522;28;20098;-36
2022/01/09 09:32:03;;;;;;;0.13;0.10;;;;;;;;;;4181440;28;20061;-34
2022/01/09 09:34:05;;;;;;;0.20;0.20;;;;;;;;;;4181477;28;20049;-37
2022/01/09 09:36:06;;;;;;;0.10;0.10;;;;;;;;;;4181708;28;20048;-35
2022/01/09 09:38:10;;;;;;;0.13;0.10;;;;;;;;;;4180848;28;20049;-33
2022/01/09 09:40:11;;;;;;;0.10;0.10;;;;;;;;;;4181317;28;20049;-33
2022/01/09 09:42:12;;;;;;;0.30;0.22;;;;;;;;;;4181341;28;20061;-33
2022/01/09 09:44:14;;;;;;;0.20;0.20;;;;;;;;;;4181240;28;20052;-33
2022/01/09 09:46:15;;;;;;;0.47;0.35;;;;;;;;;;4181401;28;20094;-35
2022/01/09 09:48:16;;;;;;;0.10;0.10;;;;;;;;;;4180634;28;20543;-32
2022/01/09 09:50:19;;;;;;;0.13;0.10;;;;;;;;;;4181157;28;20397;-34
2022/01/09 09:52:20;;;;;;;0.10;0.10;;;;;;;;;;4180648;28;20407;-33
2022/01/09 09:54:22;;;;;;;0.20;0.20;;;;;;;;;;4179804;28;20045;-34
2022/01/09 09:56:23;;;;;;;0.10;0.10;;;;;;;;;;4181055;28;20382;-33
2022/01/09 09:58:24;;;;;;;0.30;0.20;;;;;;;;;;4180926;28;20048;-33
2022/01/09 10:00:25;;;;;;;0.10;0.10;;;;;;;;;;4181081;28;20553;-36
2022/01/09 10:02:38;;;;;;;0.10;0.10;;;;;;;;;;4180961;28;20514;-34
2022/01/09 10:04:58;;;;;;;0.13;0.13;;;;;;;;;;4181004;28;20049;-36
2022/01/09 10:06:59;;;;;;;0.28;0.20;;;;;;;;;;4180528;28;20123;-35
2022/01/09 10:09:04;;;;;;;0.10;0.10;;;;;;;;;;4180834;28;20087;-36
2022/01/09 10:11:12;;;;;;;0.10;0.10;;;;;;;;;;4180953;28;20045;-34
2022/01/09 10:13:19;;;;;;;0.20;0.20;;;;;;;;;;4179433;28;20048;-36
2022/01/09 10:15:20;;;;;;;0.13;0.10;;;;;;;;;;4181193;28;20041;-35
2022/01/09 10:17:21;;;;;;;0.20;0.20;;;;;;;;;;4180521;28;20477;-33
2022/01/09 10:19:39;;;;;;;0.30;0.28;;;;;;;;;;4180923;28;20102;-33
2022/01/09 10:21:44;;;;;;;0.17;0.17;;;;;;;;;;4180435;28;20198;-38
2022/01/09 10:24:00;;;;;;;0.30;0.25;;;;;;;;;;4180568;28;20107;-33
2022/01/09 10:26:11;;;;;;;0.20;0.20;;;;;;;;;;4180768;28;20438;-33
2022/01/09 10:28:17;;;;;;;0.20;0.20;;;;;;;;;;4180697;28;20503;-32
2022/01/09 10:30:21;;;;;;;0.20;0.20;;;;;;;;;;4180547;28;20049;-33
2022/01/09 10:32:26;;;;;;;0.28;0.20;;;;;;;;;;4180569;28;20049;-32
2022/01/09 10:34:27;;;;;;;0.20;0.20;;;;;;;;;;4180640;28;20053;-32
2022/01/09 10:36:34;;;;;;;0.20;0.20;;;;;;;;;;4180815;28;20111;-36
2022/01/09 10:38:36;;;;;;;0.35;0.30;;;;;;;;;;4180044;28;20045;-36
2022/01/09 10:40:38;;;;;;;0.10;0.10;;;;;;;;;;4180421;28;20049;-32
2022/01/09 10:42:40;;;;;;;0.30;0.20;;;;;;;;;;4180404;28;20058;-32
2022/01/09 10:44:43;;;;;;;0.30;0.30;;;;;;;;;;4180687;28;20053;-34
2022/01/09 10:46:57;;;;;;;0.20;0.20;;;;;;;;;;4180438;28;20049;-34
2022/01/09 10:49:00;;;;;;;0.20;0.15;;;;;;;;;;4179074;28;20053;-35
2022/01/09 10:51:02;;;;;;;0.40;0.30;;;;;;;;;;4179371;28;20053;-36
2022/01/09 10:53:12;;;;;;;0.28;0.20;;;;;;;;;;4180268;28;20143;-33
2022/01/09 10:55:13;;;;;;;0.20;0.20;;;;;;;;;;4180404;28;20048;-33
2022/01/09 10:57:19;;;;;;;0.20;0.20;;;;;;;;;;4180205;28;20053;-33
2022/01/09 10:59:28;;;;;;;0.10;0.10;;;;;;;;;;4180320;28;20045;-34
2022/01/09 11:01:33;;;;;;;0.22;0.15;;;;;;;;;;4179700;28;20439;-34
2022/01/09 11:03:34;;;;;;;0.10;0.10;;;;;;;;;;4180513;28;20268;-34
2022/01/09 11:05:35;;;;;;;0.20;0.20;;;;;;;;;;4180416;28;20060;-32
2022/01/09 11:07:36;;;;;;;0.20;0.20;;;;;;;;;;4179971;28;20056;-33
2022/01/09 11:09:39;;;;;;;0.68;0.20;;;;;;;;;;4180204;28;20048;-32
2022/01/09 11:11:43;;;;;;;0.20;0.20;;;;;;;;;;4179955;28;20107;-34
2022/01/09 11:13:45;;;;;;;0.10;0.10;;;;;;;;;;4180136;28;20087;-33
2022/01/09 11:16:32;;;;;;;0.20;0.20;;;;;;;;;;4180227;28;20045;-32
2022/01/09 11:18:08;;;;;;;0.15;0.15;;;;;;;;;;4180070;28;20048;-33
2022/01/09 11:20:09;;;;;;;0.20;0.20;;;;;;;;;;4180231;28;20060;-34
2022/01/09 11:22:10;;;;;;;0.10;0.10;;;;;;;;;;4179886;28;20083;-33
2022/01/09 11:24:11;;;;;;;0.40;0.20;;;;;;;;;;4178867;28;20520;-35
2022/01/09 11:26:14;;;;;;;0.20;0.20;;;;;;;;;;4180114;28;20057;-32
2022/01/09 11:28:22;;;;;;;0.17;0.15;;;;;;;;;;4180039;28;20049;-33
2022/01/09 11:30:29;;;;;;;0.43;0.30;;;;;;;;;;4180065;28;20107;-34
2022/01/09 11:32:30;;;;;;;0.10;0.10;;;;;;;;;;4179971;28;20421;-35
2022/01/09 11:34:38;;;;;;;0.20;0.20;;;;;;;;;;4178747;28;20053;-33
2022/01/09 11:36:57;;;;;;;0.20;0.20;;;;;;;;;;4179995;28;20521;-39
2022/01/09 11:39:02;;;;;;;0.20;0.20;;;;;;;;;;4180362;28;20049;-35
2022/01/09 11:41:17;;;;;;;0.40;0.30;;;;;;;;;;4180051;28;20548;-32
2022/01/09 11:43:19;;;;;;;0.28;0.10;;;;;;;;;;4179967;28;20056;-33
2022/01/09 11:45:38;;;;;;;0.10;0.10;;;;;;;;;;4179983;28;20539;-34
2022/01/09 11:47:51;;;;;;;0.20;0.20;;;;;;;;;;4179866;28;20377;-32
2022/01/09 11:49:58;;;;;;;0.10;0.10;;;;;;;;;;4179887;28;20053;-33
2022/01/09 11:51:59;;;;;;;0.10;0.10;;;;;;;;;;4179483;28;20514;-35
2022/01/09 11:54:00;;;;;;;0.13;0.13;;;;;;;;;;4179854;28;20501;-32
2022/01/09 11:56:01;;;;;;;0.32;0.32;;;;;;;;;;4180146;28;20158;-37
2022/01/09 11:58:06;;;;;;;0.20;0.20;;;;;;;;;;4179899;28;20049;-32
2022/01/09 12:00:26;;;;;;;0.10;0.10;;;;;;;;;;4179810;28;20095;-32
2022/01/09 12:02:29;;;;;;;0.10;0.10;;;;;;;;;;4178749;28;20053;-35
2022/01/09 12:04:33;;;;;;;0.10;0.10;;;;;;;;;;4179932;28;20439;-37
2022/01/09 12:06:40;;;;;;;0.15;0.15;;;;;;;;;;4179807;28;20053;-34
2022/01/09 12:08:53;;;;;;;0.30;0.28;;;;;;;;;;4179842;28;20068;-32
2022/01/09 12:10:54;;;;;;;0.28;0.20;;;;;;;;;;4179754;28;20053;-32
2022/01/09 12:12:56;;;;;;;0.20;0.20;;;;;;;;;;4182407;28;20053;-32